sensor_id;sensor_type;location;lat;lon;timestamp;P1;durP1;ratioP1;P2;durP2;ratioP2
70342;SDS011;57767;42.068;24.752;2022-07-29T00:00:13;8.57;;;4.10;;
70342;SDS011;57767;42.068;24.752;2022-07-29T00:01:15;5.18;;;4.32;;
70342;SDS011;57767;42.068;24.752;2022-07-29T00:02:19;8.18;;;4.80;;
70342;SDS011;57767;42.068;24.752;2022-07-29T00:03:21;6.25;;;4.40;;
70342;SDS011;57767;42.068;24.752;2022-07-29T00:04:23;6.13;;;4.90;;
70342;SDS011;57767;42.068;24.752;2022-07-29T00:05:25;6.20;;;4.60;;
70342;SDS011;57767;42.068;24.752;2022-07-29T00:06:27;5.25;;;3.90;;
70342;SDS011;57767;42.068;24.752;2022-07-29T00:07:29;4.88;;;4.13;;
70342;SDS011;57767;42.068;24.752;2022-07-29T00:08:30;7.20;;;4.43;;
70342;SDS011;57767;42.068;24.752;2022-07-29T00:09:32;8.05;;;4.50;;
70342;SDS011;57767;42.068;24.752;2022-07-29T00:10:52;5.25;;;4.05;;
70342;SDS011;57767;42.068;24.752;2022-07-29T00:11:54;8.25;;;4.30;;
70342;SDS011;57767;42.068;24.752;2022-07-29T00:12:59;5.03;;;4.10;;
70342;SDS011;57767;42.068;24.752;2022-07-29T00:14:02;7.22;;;4.40;;
70342;SDS011;57767;42.068;24.752;2022-07-29T00:15:04;9.35;;;4.35;;
70342;SDS011;57767;42.068;24.752;2022-07-29T00:16:06;6.85;;;4.45;;
70342;SDS011;57767;42.068;24.752;2022-07-29T00:17:08;8.38;;;4.75;;
70342;SDS011;57767;42.068;24.752;2022-07-29T00:18:09;5.60;;;4.72;;
70342;SDS011;57767;42.068;24.752;2022-07-29T00:19:11;5.60;;;4.40;;
70342;SDS011;57767;42.068;24.752;2022-07-29T00:20:13;6.95;;;4.85;;
70342;SDS011;57767;42.068;24.752;2022-07-29T00:21:15;6.35;;;5.15;;
70342;SDS011;57767;42.068;24.752;2022-07-29T00:22:17;5.45;;;4.90;;
70342;SDS011;57767;42.068;24.752;2022-07-29T00:23:18;5.15;;;4.65;;
70342;SDS011;57767;42.068;24.752;2022-07-29T00:24:20;6.53;;;4.45;;
70342;SDS011;57767;42.068;24.752;2022-07-29T00:25:22;7.45;;;4.53;;
70342;SDS011;57767;42.068;24.752;2022-07-29T00:26:24;6.72;;;4.40;;
70342;SDS011;57767;42.068;24.752;2022-07-29T00:27:26;6.50;;;4.68;;
70342;SDS011;57767;42.068;24.752;2022-07-29T00:28:28;5.03;;;4.47;;
70342;SDS011;57767;42.068;24.752;2022-07-29T00:29:30;9.90;;;5.03;;
70342;SDS011;57767;42.068;24.752;2022-07-29T00:30:34;10.07;;;5.00;;
70342;SDS011;57767;42.068;24.752;2022-07-29T00:31:36;5.40;;;4.78;;
70342;SDS011;57767;42.068;24.752;2022-07-29T00:32:38;5.45;;;4.82;;
70342;SDS011;57767;42.068;24.752;2022-07-29T00:33:40;5.38;;;4.72;;
70342;SDS011;57767;42.068;24.752;2022-07-29T00:34:42;7.63;;;4.80;;
70342;SDS011;57767;42.068;24.752;2022-07-29T00:36:02;10.90;;;5.50;;
70342;SDS011;57767;42.068;24.752;2022-07-29T00:37:04;9.25;;;4.90;;
70342;SDS011;57767;42.068;24.752;2022-07-29T00:38:08;7.07;;;4.97;;
70342;SDS011;57767;42.068;24.752;2022-07-29T00:39:09;6.80;;;4.80;;
70342;SDS011;57767;42.068;24.752;2022-07-29T00:40:11;5.32;;;4.60;;
70342;SDS011;57767;42.068;24.752;2022-07-29T00:41:13;6.50;;;4.43;;
70342;SDS011;57767;42.068;24.752;2022-07-29T00:42:15;5.50;;;4.93;;
70342;SDS011;57767;42.068;24.752;2022-07-29T00:43:17;6.38;;;5.03;;
70342;SDS011;57767;42.068;24.752;2022-07-29T00:44:19;8.70;;;4.75;;
70342;SDS011;57767;42.068;24.752;2022-07-29T00:45:21;5.72;;;4.50;;
70342;SDS011;57767;42.068;24.752;2022-07-29T00:46:23;5.85;;;4.50;;
70342;SDS011;57767;42.068;24.752;2022-07-29T00:47:25;7.00;;;5.13;;
70342;SDS011;57767;42.068;24.752;2022-07-29T00:48:27;6.15;;;4.03;;
70342;SDS011;57767;42.068;24.752;2022-07-29T00:49:28;5.20;;;4.70;;
70342;SDS011;57767;42.068;24.752;2022-07-29T00:50:30;5.32;;;4.75;;
70342;SDS011;57767;42.068;24.752;2022-07-29T00:51:37;6.97;;;5.03;;
70342;SDS011;57767;42.068;24.752;2022-07-29T00:52:40;5.47;;;4.43;;
70342;SDS011;57767;42.068;24.752;2022-07-29T00:53:42;7.63;;;5.03;;
70342;SDS011;57767;42.068;24.752;2022-07-29T00:54:45;6.82;;;4.40;;
70342;SDS011;57767;42.068;24.752;2022-07-29T00:55:47;8.82;;;4.55;;
70342;SDS011;57767;42.068;24.752;2022-07-29T00:56:49;6.03;;;4.70;;
70342;SDS011;57767;42.068;24.752;2022-07-29T00:57:51;6.15;;;4.68;;
70342;SDS011;57767;42.068;24.752;2022-07-29T00:58:53;5.93;;;4.63;;
70342;SDS011;57767;42.068;24.752;2022-07-29T00:59:57;7.18;;;4.65;;
70342;SDS011;57767;42.068;24.752;2022-07-29T01:00:59;5.72;;;4.53;;
70342;SDS011;57767;42.068;24.752;2022-07-29T01:02:02;8.55;;;5.10;;
70342;SDS011;57767;42.068;24.752;2022-07-29T01:03:04;6.15;;;4.70;;
70342;SDS011;57767;42.068;24.752;2022-07-29T01:04:06;8.65;;;4.55;;
70342;SDS011;57767;42.068;24.752;2022-07-29T01:05:08;5.88;;;4.50;;
70342;SDS011;57767;42.068;24.752;2022-07-29T01:06:12;7.30;;;4.78;;
70342;SDS011;57767;42.068;24.752;2022-07-29T01:07:14;7.45;;;4.90;;
70342;SDS011;57767;42.068;24.752;2022-07-29T01:08:17;8.73;;;5.00;;
70342;SDS011;57767;42.068;24.752;2022-07-29T01:09:21;7.13;;;5.13;;
70342;SDS011;57767;42.068;24.752;2022-07-29T01:10:44;5.03;;;4.47;;
70342;SDS011;57767;42.068;24.752;2022-07-29T01:11:47;5.93;;;4.90;;
70342;SDS011;57767;42.068;24.752;2022-07-29T01:12:50;5.75;;;4.90;;
70342;SDS011;57767;42.068;24.752;2022-07-29T01:13:53;6.50;;;5.00;;
70342;SDS011;57767;42.068;24.752;2022-07-29T01:14:55;5.35;;;4.38;;
70342;SDS011;57767;42.068;24.752;2022-07-29T01:15:59;6.97;;;4.85;;
70342;SDS011;57767;42.068;24.752;2022-07-29T01:18:24;5.20;;;4.70;;
70342;SDS011;57767;42.068;24.752;2022-07-29T01:21:06;6.97;;;4.97;;
70342;SDS011;57767;42.068;24.752;2022-07-29T01:27:04;10.38;;;4.80;;
70342;SDS011;57767;42.068;24.752;2022-07-29T01:29:44;6.63;;;5.00;;
70342;SDS011;57767;42.068;24.752;2022-07-29T01:30:50;6.00;;;5.18;;
70342;SDS011;57767;42.068;24.752;2022-07-29T01:31:54;5.95;;;5.32;;
70342;SDS011;57767;42.068;24.752;2022-07-29T01:33:06;7.30;;;5.00;;
70342;SDS011;57767;42.068;24.752;2022-07-29T01:34:14;8.15;;;5.55;;
70342;SDS011;57767;42.068;24.752;2022-07-29T01:35:26;7.28;;;5.18;;
70342;SDS011;57767;42.068;24.752;2022-07-29T01:36:43;8.35;;;5.00;;
70342;SDS011;57767;42.068;24.752;2022-07-29T01:37:59;6.10;;;5.03;;
70342;SDS011;57767;42.068;24.752;2022-07-29T01:39:49;6.82;;;5.38;;
70342;SDS011;57767;42.068;24.752;2022-07-29T01:41:49;7.63;;;5.10;;
70342;SDS011;57767;42.068;24.752;2022-07-29T01:42:59;6.13;;;4.75;;
70342;SDS011;57767;42.068;24.752;2022-07-29T01:44:14;6.40;;;5.72;;
70342;SDS011;57767;42.068;24.752;2022-07-29T01:45:23;5.90;;;5.25;;
70342;SDS011;57767;42.068;24.752;2022-07-29T01:46:47;6.63;;;5.00;;
70342;SDS011;57767;42.068;24.752;2022-07-29T01:49:04;7.70;;;5.82;;
70342;SDS011;57767;42.068;24.752;2022-07-29T01:50:12;9.07;;;5.60;;
70342;SDS011;57767;42.068;24.752;2022-07-29T01:51:19;5.43;;;4.93;;
70342;SDS011;57767;42.068;24.752;2022-07-29T01:52:46;6.10;;;5.50;;
70342;SDS011;57767;42.068;24.752;2022-07-29T01:53:55;7.25;;;4.97;;
70342;SDS011;57767;42.068;24.752;2022-07-29T01:55:12;6.63;;;4.95;;
70342;SDS011;57767;42.068;24.752;2022-07-29T01:56:16;6.57;;;4.95;;
70342;SDS011;57767;42.068;24.752;2022-07-29T01:57:23;6.65;;;5.00;;
70342;SDS011;57767;42.068;24.752;2022-07-29T01:58:29;7.72;;;5.07;;
70342;SDS011;57767;42.068;24.752;2022-07-29T01:59:33;7.50;;;5.03;;
70342;SDS011;57767;42.068;24.752;2022-07-29T02:00:37;6.50;;;5.70;;
70342;SDS011;57767;42.068;24.752;2022-07-29T02:01:44;9.30;;;5.40;;
70342;SDS011;57767;42.068;24.752;2022-07-29T02:02:48;6.18;;;5.25;;
70342;SDS011;57767;42.068;24.752;2022-07-29T02:03:51;7.80;;;5.00;;
70342;SDS011;57767;42.068;24.752;2022-07-29T02:04:55;5.68;;;5.15;;
70342;SDS011;57767;42.068;24.752;2022-07-29T02:06:00;5.32;;;4.90;;
70342;SDS011;57767;42.068;24.752;2022-07-29T02:07:05;6.65;;;5.30;;
70342;SDS011;57767;42.068;24.752;2022-07-29T02:08:09;7.90;;;5.22;;
70342;SDS011;57767;42.068;24.752;2022-07-29T02:09:13;6.22;;;5.55;;
70342;SDS011;57767;42.068;24.752;2022-07-29T02:10:20;6.10;;;5.15;;
70342;SDS011;57767;42.068;24.752;2022-07-29T02:11:26;8.57;;;5.70;;
70342;SDS011;57767;42.068;24.752;2022-07-29T02:12:28;7.80;;;5.40;;
70342;SDS011;57767;42.068;24.752;2022-07-29T02:13:32;7.60;;;5.82;;
70342;SDS011;57767;42.068;24.752;2022-07-29T02:14:38;6.43;;;5.32;;
70342;SDS011;57767;42.068;24.752;2022-07-29T02:15:45;7.50;;;5.28;;
70342;SDS011;57767;42.068;24.752;2022-07-29T02:16:48;9.25;;;5.90;;
70342;SDS011;57767;42.068;24.752;2022-07-29T02:17:57;5.72;;;5.22;;
70342;SDS011;57767;42.068;24.752;2022-07-29T02:19:02;6.38;;;5.30;;
70342;SDS011;57767;42.068;24.752;2022-07-29T02:20:05;6.63;;;5.93;;
70342;SDS011;57767;42.068;24.752;2022-07-29T02:21:09;7.30;;;5.60;;
70342;SDS011;57767;42.068;24.752;2022-07-29T02:22:16;6.45;;;5.40;;
70342;SDS011;57767;42.068;24.752;2022-07-29T02:23:20;8.02;;;5.28;;
70342;SDS011;57767;42.068;24.752;2022-07-29T02:24:24;5.97;;;5.38;;
70342;SDS011;57767;42.068;24.752;2022-07-29T02:25:27;6.50;;;5.43;;
70342;SDS011;57767;42.068;24.752;2022-07-29T02:26:37;10.02;;;5.90;;
70342;SDS011;57767;42.068;24.752;2022-07-29T02:27:43;6.10;;;5.50;;
70342;SDS011;57767;42.068;24.752;2022-07-29T02:28:47;9.75;;;5.95;;
70342;SDS011;57767;42.068;24.752;2022-07-29T02:29:51;6.35;;;5.75;;
70342;SDS011;57767;42.068;24.752;2022-07-29T02:30:55;7.63;;;5.70;;
70342;SDS011;57767;42.068;24.752;2022-07-29T02:32:00;6.30;;;5.70;;
70342;SDS011;57767;42.068;24.752;2022-07-29T02:33:05;6.20;;;5.60;;
70342;SDS011;57767;42.068;24.752;2022-07-29T02:34:08;6.60;;;5.88;;
70342;SDS011;57767;42.068;24.752;2022-07-29T02:35:13;6.78;;;6.15;;
70342;SDS011;57767;42.068;24.752;2022-07-29T02:36:16;6.43;;;5.72;;
70342;SDS011;57767;42.068;24.752;2022-07-29T02:37:19;8.60;;;6.40;;
70342;SDS011;57767;42.068;24.752;2022-07-29T02:38:21;7.05;;;6.35;;
70342;SDS011;57767;42.068;24.752;2022-07-29T02:39:44;7.20;;;6.15;;
70342;SDS011;57767;42.068;24.752;2022-07-29T02:40:48;7.95;;;6.10;;
70342;SDS011;57767;42.068;24.752;2022-07-29T02:41:52;9.60;;;6.88;;
70342;SDS011;57767;42.068;24.752;2022-07-29T02:43:01;8.32;;;6.50;;
70342;SDS011;57767;42.068;24.752;2022-07-29T02:44:13;8.00;;;6.13;;
70342;SDS011;57767;42.068;24.752;2022-07-29T02:45:17;7.28;;;5.97;;
70342;SDS011;57767;42.068;24.752;2022-07-29T02:46:21;10.95;;;6.22;;
70342;SDS011;57767;42.068;24.752;2022-07-29T02:47:32;6.88;;;6.18;;
70342;SDS011;57767;42.068;24.752;2022-07-29T02:48:46;11.57;;;6.60;;
70342;SDS011;57767;42.068;24.752;2022-07-29T02:51:12;8.15;;;6.68;;
70342;SDS011;57767;42.068;24.752;2022-07-29T02:52:45;9.27;;;7.05;;
70342;SDS011;57767;42.068;24.752;2022-07-29T02:53:52;7.10;;;6.10;;
70342;SDS011;57767;42.068;24.752;2022-07-29T02:55:00;7.57;;;6.88;;
70342;SDS011;57767;42.068;24.752;2022-07-29T02:56:08;7.88;;;6.70;;
70342;SDS011;57767;42.068;24.752;2022-07-29T02:57:16;7.88;;;6.55;;
70342;SDS011;57767;42.068;24.752;2022-07-29T02:59:36;9.73;;;7.47;;
70342;SDS011;57767;42.068;24.752;2022-07-29T03:00:39;7.95;;;6.53;;
70342;SDS011;57767;42.068;24.752;2022-07-29T03:01:42;7.68;;;6.78;;
70342;SDS011;57767;42.068;24.752;2022-07-29T03:02:45;11.25;;;7.05;;
70342;SDS011;57767;42.068;24.752;2022-07-29T03:03:53;9.32;;;6.90;;
70342;SDS011;57767;42.068;24.752;2022-07-29T03:04:56;9.20;;;6.85;;
70342;SDS011;57767;42.068;24.752;2022-07-29T03:06:01;9.65;;;6.70;;
70342;SDS011;57767;42.068;24.752;2022-07-29T03:07:04;7.60;;;6.55;;
70342;SDS011;57767;42.068;24.752;2022-07-29T03:08:07;17.52;;;7.28;;
70342;SDS011;57767;42.068;24.752;2022-07-29T03:09:11;15.23;;;6.72;;
70342;SDS011;57767;42.068;24.752;2022-07-29T03:10:14;9.93;;;7.32;;
70342;SDS011;57767;42.068;24.752;2022-07-29T03:11:16;9.95;;;6.82;;
70342;SDS011;57767;42.068;24.752;2022-07-29T03:12:19;10.30;;;7.10;;
70342;SDS011;57767;42.068;24.752;2022-07-29T03:13:22;7.80;;;6.95;;
70342;SDS011;57767;42.068;24.752;2022-07-29T03:14:24;11.88;;;6.53;;
70342;SDS011;57767;42.068;24.752;2022-07-29T03:15:27;9.18;;;7.03;;
70342;SDS011;57767;42.068;24.752;2022-07-29T03:16:30;9.30;;;7.30;;
70342;SDS011;57767;42.068;24.752;2022-07-29T03:17:36;9.23;;;7.82;;
70342;SDS011;57767;42.068;24.752;2022-07-29T03:18:39;11.95;;;7.32;;
70342;SDS011;57767;42.068;24.752;2022-07-29T03:19:41;9.10;;;7.43;;
70342;SDS011;57767;42.068;24.752;2022-07-29T03:20:43;10.40;;;7.22;;
70342;SDS011;57767;42.068;24.752;2022-07-29T03:21:45;8.98;;;7.03;;
70342;SDS011;57767;42.068;24.752;2022-07-29T03:22:47;7.70;;;7.00;;
70342;SDS011;57767;42.068;24.752;2022-07-29T03:23:49;10.52;;;6.97;;
70342;SDS011;57767;42.068;24.752;2022-07-29T03:24:51;11.23;;;7.20;;
70342;SDS011;57767;42.068;24.752;2022-07-29T03:25:53;10.55;;;8.32;;
70342;SDS011;57767;42.068;24.752;2022-07-29T03:26:57;8.60;;;6.88;;
70342;SDS011;57767;42.068;24.752;2022-07-29T03:27:59;10.60;;;7.38;;
70342;SDS011;57767;42.068;24.752;2022-07-29T03:29:02;8.77;;;7.28;;
70342;SDS011;57767;42.068;24.752;2022-07-29T03:30:05;8.50;;;6.97;;
70342;SDS011;57767;42.068;24.752;2022-07-29T03:31:09;18.20;;;7.30;;
70342;SDS011;57767;42.068;24.752;2022-07-29T03:32:13;10.25;;;6.80;;
70342;SDS011;57767;42.068;24.752;2022-07-29T03:33:24;9.40;;;6.57;;
70342;SDS011;57767;42.068;24.752;2022-07-29T03:34:25;9.75;;;6.90;;
70342;SDS011;57767;42.068;24.752;2022-07-29T03:35:27;10.00;;;6.60;;
70342;SDS011;57767;42.068;24.752;2022-07-29T03:36:29;9.55;;;6.57;;
70342;SDS011;57767;42.068;24.752;2022-07-29T03:37:31;10.70;;;7.43;;
70342;SDS011;57767;42.068;24.752;2022-07-29T03:38:34;10.00;;;6.50;;
70342;SDS011;57767;42.068;24.752;2022-07-29T03:39:38;8.25;;;6.50;;
70342;SDS011;57767;42.068;24.752;2022-07-29T03:40:44;7.10;;;6.40;;
70342;SDS011;57767;42.068;24.752;2022-07-29T03:41:52;11.02;;;6.72;;
70342;SDS011;57767;42.068;24.752;2022-07-29T03:42:56;8.95;;;6.60;;
70342;SDS011;57767;42.068;24.752;2022-07-29T03:44:00;20.52;;;10.65;;
70342;SDS011;57767;42.068;24.752;2022-07-29T03:45:05;21.95;;;10.65;;
70342;SDS011;57767;42.068;24.752;2022-07-29T03:46:09;14.02;;;9.63;;
70342;SDS011;57767;42.068;24.752;2022-07-29T03:47:13;17.67;;;8.63;;
70342;SDS011;57767;42.068;24.752;2022-07-29T03:48:17;13.18;;;7.80;;
70342;SDS011;57767;42.068;24.752;2022-07-29T03:49:22;22.27;;;7.80;;
70342;SDS011;57767;42.068;24.752;2022-07-29T03:50:25;8.88;;;7.00;;
70342;SDS011;57767;42.068;24.752;2022-07-29T03:51:27;10.30;;;7.03;;
70342;SDS011;57767;42.068;24.752;2022-07-29T03:52:34;9.55;;;7.30;;
70342;SDS011;57767;42.068;24.752;2022-07-29T03:53:36;12.35;;;6.65;;
70342;SDS011;57767;42.068;24.752;2022-07-29T03:54:39;7.05;;;6.28;;
70342;SDS011;57767;42.068;24.752;2022-07-29T03:55:43;10.00;;;6.68;;
70342;SDS011;57767;42.068;24.752;2022-07-29T03:56:52;12.13;;;6.47;;
70342;SDS011;57767;42.068;24.752;2022-07-29T03:57:55;8.68;;;7.07;;
70342;SDS011;57767;42.068;24.752;2022-07-29T03:58:58;9.02;;;6.95;;
70342;SDS011;57767;42.068;24.752;2022-07-29T04:00:03;8.45;;;6.47;;
70342;SDS011;57767;42.068;24.752;2022-07-29T04:01:06;13.25;;;6.20;;
70342;SDS011;57767;42.068;24.752;2022-07-29T04:02:09;13.75;;;7.15;;
70342;SDS011;57767;42.068;24.752;2022-07-29T04:03:12;9.63;;;7.18;;
70342;SDS011;57767;42.068;24.752;2022-07-29T04:04:16;12.95;;;7.13;;
70342;SDS011;57767;42.068;24.752;2022-07-29T04:05:18;13.55;;;7.00;;
70342;SDS011;57767;42.068;24.752;2022-07-29T04:06:20;11.23;;;7.20;;
70342;SDS011;57767;42.068;24.752;2022-07-29T04:07:22;12.25;;;6.47;;
70342;SDS011;57767;42.068;24.752;2022-07-29T04:08:24;8.25;;;5.97;;
70342;SDS011;57767;42.068;24.752;2022-07-29T04:09:25;7.88;;;6.88;;
70342;SDS011;57767;42.068;24.752;2022-07-29T04:10:27;10.07;;;6.35;;
70342;SDS011;57767;42.068;24.752;2022-07-29T04:11:32;10.38;;;6.82;;
70342;SDS011;57767;42.068;24.752;2022-07-29T04:12:54;13.07;;;7.35;;
70342;SDS011;57767;42.068;24.752;2022-07-29T04:13:56;7.57;;;6.88;;
70342;SDS011;57767;42.068;24.752;2022-07-29T04:14:57;12.52;;;7.55;;
70342;SDS011;57767;42.068;24.752;2022-07-29T04:15:59;11.68;;;7.30;;
70342;SDS011;57767;42.068;24.752;2022-07-29T04:17:01;15.98;;;6.50;;
70342;SDS011;57767;42.068;24.752;2022-07-29T04:18:04;17.20;;;7.93;;
70342;SDS011;57767;42.068;24.752;2022-07-29T04:19:07;19.85;;;8.00;;
70342;SDS011;57767;42.068;24.752;2022-07-29T04:20:09;22.33;;;7.32;;
70342;SDS011;57767;42.068;24.752;2022-07-29T04:21:14;13.13;;;6.90;;
70342;SDS011;57767;42.068;24.752;2022-07-29T04:22:16;10.70;;;6.70;;
70342;SDS011;57767;42.068;24.752;2022-07-29T04:23:17;7.82;;;7.03;;
70342;SDS011;57767;42.068;24.752;2022-07-29T04:24:19;9.18;;;7.20;;
70342;SDS011;57767;42.068;24.752;2022-07-29T04:25:21;8.77;;;7.03;;
70342;SDS011;57767;42.068;24.752;2022-07-29T04:26:23;9.75;;;6.97;;
70342;SDS011;57767;42.068;24.752;2022-07-29T04:27:25;9.07;;;7.32;;
70342;SDS011;57767;42.068;24.752;2022-07-29T04:28:27;8.00;;;7.20;;
70342;SDS011;57767;42.068;24.752;2022-07-29T04:29:28;8.93;;;7.25;;
70342;SDS011;57767;42.068;24.752;2022-07-29T04:30:30;8.63;;;6.95;;
70342;SDS011;57767;42.068;24.752;2022-07-29T04:31:33;7.90;;;6.70;;
70342;SDS011;57767;42.068;24.752;2022-07-29T04:32:35;8.45;;;6.30;;
70342;SDS011;57767;42.068;24.752;2022-07-29T04:33:37;8.57;;;6.82;;
70342;SDS011;57767;42.068;24.752;2022-07-29T04:34:39;7.80;;;6.80;;
70342;SDS011;57767;42.068;24.752;2022-07-29T04:35:40;9.18;;;7.47;;
70342;SDS011;57767;42.068;24.752;2022-07-29T04:36:50;8.05;;;6.43;;
70342;SDS011;57767;42.068;24.752;2022-07-29T04:37:52;8.60;;;6.65;;
70342;SDS011;57767;42.068;24.752;2022-07-29T04:38:54;14.63;;;6.53;;
70342;SDS011;57767;42.068;24.752;2022-07-29T04:39:56;9.15;;;6.00;;
70342;SDS011;57767;42.068;24.752;2022-07-29T04:40:57;11.75;;;6.65;;
70342;SDS011;57767;42.068;24.752;2022-07-29T04:41:59;8.70;;;6.13;;
70342;SDS011;57767;42.068;24.752;2022-07-29T04:43:01;7.07;;;6.40;;
70342;SDS011;57767;42.068;24.752;2022-07-29T04:44:06;12.45;;;6.63;;
70342;SDS011;57767;42.068;24.752;2022-07-29T04:45:09;9.68;;;6.57;;
70342;SDS011;57767;42.068;24.752;2022-07-29T04:46:10;10.50;;;6.85;;
70342;SDS011;57767;42.068;24.752;2022-07-29T04:47:12;9.98;;;6.90;;
70342;SDS011;57767;42.068;24.752;2022-07-29T04:48:14;8.93;;;6.47;;
70342;SDS011;57767;42.068;24.752;2022-07-29T04:49:16;10.38;;;6.40;;
70342;SDS011;57767;42.068;24.752;2022-07-29T04:50:17;12.43;;;6.72;;
70342;SDS011;57767;42.068;24.752;2022-07-29T04:51:19;6.63;;;6.03;;
70342;SDS011;57767;42.068;24.752;2022-07-29T04:52:21;8.13;;;6.70;;
70342;SDS011;57767;42.068;24.752;2022-07-29T04:53:24;6.45;;;5.82;;
70342;SDS011;57767;42.068;24.752;2022-07-29T04:54:25;6.63;;;5.93;;
70342;SDS011;57767;42.068;24.752;2022-07-29T04:55:27;6.50;;;5.35;;
70342;SDS011;57767;42.068;24.752;2022-07-29T04:56:29;7.85;;;5.32;;
70342;SDS011;57767;42.068;24.752;2022-07-29T04:57:31;9.15;;;6.22;;
70342;SDS011;57767;42.068;24.752;2022-07-29T04:58:36;8.65;;;5.95;;
70342;SDS011;57767;42.068;24.752;2022-07-29T04:59:37;9.27;;;6.35;;
70342;SDS011;57767;42.068;24.752;2022-07-29T05:00:39;6.57;;;5.43;;
70342;SDS011;57767;42.068;24.752;2022-07-29T05:01:41;8.23;;;5.30;;
70342;SDS011;57767;42.068;24.752;2022-07-29T05:02:43;7.63;;;5.63;;
70342;SDS011;57767;42.068;24.752;2022-07-29T05:03:45;7.60;;;6.35;;
70342;SDS011;57767;42.068;24.752;2022-07-29T05:04:47;9.18;;;5.90;;
70342;SDS011;57767;42.068;24.752;2022-07-29T05:05:49;8.75;;;5.60;;
70342;SDS011;57767;42.068;24.752;2022-07-29T05:06:51;11.50;;;5.85;;
70342;SDS011;57767;42.068;24.752;2022-07-29T05:07:53;7.38;;;5.63;;
70342;SDS011;57767;42.068;24.752;2022-07-29T05:08:54;6.75;;;6.05;;
70342;SDS011;57767;42.068;24.752;2022-07-29T05:09:56;8.98;;;5.60;;
70342;SDS011;57767;42.068;24.752;2022-07-29T05:10:58;10.50;;;6.60;;
70342;SDS011;57767;42.068;24.752;2022-07-29T05:12:12;7.25;;;6.22;;
70342;SDS011;57767;42.068;24.752;2022-07-29T05:13:13;6.07;;;5.57;;
70342;SDS011;57767;42.068;24.752;2022-07-29T05:14:15;11.63;;;6.57;;
70342;SDS011;57767;42.068;24.752;2022-07-29T05:15:17;7.35;;;6.20;;
70342;SDS011;57767;42.068;24.752;2022-07-29T05:16:19;12.77;;;6.22;;
70342;SDS011;57767;42.068;24.752;2022-07-29T05:17:21;8.75;;;6.50;;
70342;SDS011;57767;42.068;24.752;2022-07-29T05:18:23;8.07;;;6.47;;
70342;SDS011;57767;42.068;24.752;2022-07-29T05:19:26;7.47;;;6.68;;
70342;SDS011;57767;42.068;24.752;2022-07-29T05:20:28;14.95;;;6.45;;
70342;SDS011;57767;42.068;24.752;2022-07-29T05:21:30;11.90;;;6.88;;
70342;SDS011;57767;42.068;24.752;2022-07-29T05:22:32;10.60;;;6.35;;
70342;SDS011;57767;42.068;24.752;2022-07-29T05:23:34;9.00;;;6.50;;
70342;SDS011;57767;42.068;24.752;2022-07-29T05:24:36;10.95;;;6.50;;
70342;SDS011;57767;42.068;24.752;2022-07-29T05:25:38;7.97;;;6.07;;
70342;SDS011;57767;42.068;24.752;2022-07-29T05:26:44;7.50;;;6.80;;
70342;SDS011;57767;42.068;24.752;2022-07-29T05:27:46;7.53;;;6.82;;
70342;SDS011;57767;42.068;24.752;2022-07-29T05:28:51;9.77;;;6.95;;
70342;SDS011;57767;42.068;24.752;2022-07-29T05:29:53;8.90;;;7.13;;
70342;SDS011;57767;42.068;24.752;2022-07-29T05:30:54;14.02;;;7.80;;
70342;SDS011;57767;42.068;24.752;2022-07-29T05:31:57;21.48;;;7.35;;
70342;SDS011;57767;42.068;24.752;2022-07-29T05:33:00;13.52;;;7.47;;
70342;SDS011;57767;42.068;24.752;2022-07-29T05:34:02;9.13;;;7.30;;
70342;SDS011;57767;42.068;24.752;2022-07-29T05:35:04;12.57;;;7.65;;
70342;SDS011;57767;42.068;24.752;2022-07-29T05:36:06;8.15;;;6.72;;
70342;SDS011;57767;42.068;24.752;2022-07-29T05:37:08;11.40;;;6.60;;
70342;SDS011;57767;42.068;24.752;2022-07-29T05:38:10;10.82;;;7.53;;
70342;SDS011;57767;42.068;24.752;2022-07-29T05:39:12;8.63;;;7.28;;
70342;SDS011;57767;42.068;24.752;2022-07-29T05:40:14;8.68;;;7.38;;
70342;SDS011;57767;42.068;24.752;2022-07-29T05:41:16;10.52;;;6.68;;
70342;SDS011;57767;42.068;24.752;2022-07-29T05:42:17;10.05;;;6.45;;
70342;SDS011;57767;42.068;24.752;2022-07-29T05:43:19;7.85;;;6.70;;
70342;SDS011;57767;42.068;24.752;2022-07-29T05:44:22;7.28;;;6.63;;
70342;SDS011;57767;42.068;24.752;2022-07-29T05:45:25;7.50;;;6.22;;
70342;SDS011;57767;42.068;24.752;2022-07-29T05:46:27;9.65;;;6.45;;
70342;SDS011;57767;42.068;24.752;2022-07-29T05:47:29;8.30;;;6.80;;
70342;SDS011;57767;42.068;24.752;2022-07-29T05:48:31;11.20;;;6.80;;
70342;SDS011;57767;42.068;24.752;2022-07-29T05:49:33;7.38;;;6.55;;
70342;SDS011;57767;42.068;24.752;2022-07-29T05:50:35;8.52;;;6.72;;
70342;SDS011;57767;42.068;24.752;2022-07-29T05:51:44;7.55;;;6.30;;
70342;SDS011;57767;42.068;24.752;2022-07-29T05:52:46;12.13;;;7.10;;
70342;SDS011;57767;42.068;24.752;2022-07-29T05:53:50;10.57;;;6.57;;
70342;SDS011;57767;42.068;24.752;2022-07-29T05:54:51;11.10;;;6.60;;
70342;SDS011;57767;42.068;24.752;2022-07-29T05:55:53;10.25;;;6.80;;
70342;SDS011;57767;42.068;24.752;2022-07-29T05:56:55;7.38;;;6.30;;
70342;SDS011;57767;42.068;24.752;2022-07-29T05:57:57;9.80;;;6.97;;
70342;SDS011;57767;42.068;24.752;2022-07-29T05:58:59;8.43;;;6.88;;
70342;SDS011;57767;42.068;24.752;2022-07-29T06:00:01;7.82;;;7.13;;
70342;SDS011;57767;42.068;24.752;2022-07-29T06:01:03;8.43;;;7.00;;
70342;SDS011;57767;42.068;24.752;2022-07-29T06:02:05;12.57;;;6.25;;
70342;SDS011;57767;42.068;24.752;2022-07-29T06:03:06;10.88;;;6.85;;
70342;SDS011;57767;42.068;24.752;2022-07-29T06:04:08;11.93;;;6.85;;
70342;SDS011;57767;42.068;24.752;2022-07-29T06:05:10;10.23;;;6.45;;
70342;SDS011;57767;42.068;24.752;2022-07-29T06:06:17;11.48;;;6.60;;
70342;SDS011;57767;42.068;24.752;2022-07-29T06:07:19;9.25;;;6.57;;
70342;SDS011;57767;42.068;24.752;2022-07-29T06:08:21;11.15;;;7.45;;
70342;SDS011;57767;42.068;24.752;2022-07-29T06:09:23;9.70;;;7.20;;
70342;SDS011;57767;42.068;24.752;2022-07-29T06:10:24;8.45;;;7.18;;
70342;SDS011;57767;42.068;24.752;2022-07-29T06:11:27;8.55;;;7.13;;
70342;SDS011;57767;42.068;24.752;2022-07-29T06:12:29;8.30;;;6.57;;
70342;SDS011;57767;42.068;24.752;2022-07-29T06:13:31;10.02;;;6.90;;
70342;SDS011;57767;42.068;24.752;2022-07-29T06:14:33;10.50;;;6.60;;
70342;SDS011;57767;42.068;24.752;2022-07-29T06:15:34;10.43;;;7.38;;
70342;SDS011;57767;42.068;24.752;2022-07-29T06:16:36;8.23;;;7.05;;
70342;SDS011;57767;42.068;24.752;2022-07-29T06:17:38;9.73;;;6.55;;
70342;SDS011;57767;42.068;24.752;2022-07-29T06:19:00;10.32;;;6.93;;
70342;SDS011;57767;42.068;24.752;2022-07-29T06:20:02;8.07;;;6.75;;
70342;SDS011;57767;42.068;24.752;2022-07-29T06:21:08;8.05;;;6.68;;
70342;SDS011;57767;42.068;24.752;2022-07-29T06:22:11;10.95;;;7.38;;
70342;SDS011;57767;42.068;24.752;2022-07-29T06:23:12;8.57;;;6.60;;
70342;SDS011;57767;42.068;24.752;2022-07-29T06:24:14;7.60;;;6.68;;
70342;SDS011;57767;42.068;24.752;2022-07-29T06:25:17;7.80;;;6.93;;
70342;SDS011;57767;42.068;24.752;2022-07-29T06:26:19;8.43;;;6.93;;
70342;SDS011;57767;42.068;24.752;2022-07-29T06:27:31;10.45;;;6.50;;
70342;SDS011;57767;42.068;24.752;2022-07-29T06:28:35;12.75;;;7.15;;
70342;SDS011;57767;42.068;24.752;2022-07-29T06:29:37;10.43;;;7.13;;
70342;SDS011;57767;42.068;24.752;2022-07-29T06:30:39;11.60;;;6.93;;
70342;SDS011;57767;42.068;24.752;2022-07-29T06:31:41;13.98;;;7.03;;
70342;SDS011;57767;42.068;24.752;2022-07-29T06:32:43;11.63;;;6.88;;